Time;durP1;ratioP1;P1;durP2;ratioP2;P2;SDS_P1;SDS_P2;PMS_P1;PMS_P2;Temp;Humidity;BMP_temperature;BMP_pressure;BME280_temperature;BME280_humidity;BME280_pressure;Samples;Min_cycle;Max_cycle;Signal;HPM_P1;HPM_P2
2021/11/24 00:01:58;;;;;;;20.20;10.77;;;8.10;99.90;;;;;;5136819;27;37621;-74
2021/11/24 00:04:24;;;;;;;17.97;10.97;;;8.20;99.90;;;;;;5142883;27;38772;-75
2021/11/24 00:06:50;;;;;;;16.70;8.70;;;8.20;99.90;;;;;;5133446;27;39216;-74
2021/11/24 00:09:16;;;;;;;15.47;10.03;;;8.20;99.90;;;;;;5134125;27;37926;-75
2021/11/24 00:11:42;;;;;;;15.83;10.27;;;8.20;99.90;;;;;;5127218;27;38948;-74
2021/11/24 00:14:08;;;;;;;26.33;12.77;;;8.20;99.90;;;;;;5138611;27;40017;-74
2021/11/24 00:16:34;;;;;;;17.77;11.40;;;8.20;99.90;;;;;;5134782;27;38407;-74
2021/11/24 00:19:00;;;;;;;14.20;8.60;;;8.20;99.90;;;;;;5133786;27;38206;-74
2021/11/24 00:21:26;;;;;;;19.37;12.00;;;8.30;99.90;;;;;;5137997;27;48731;-74
2021/11/24 00:23:52;;;;;;;15.67;11.13;;;8.30;99.90;;;;;;5131612;27;40095;-75
2021/11/24 00:26:19;;;;;;;18.13;10.97;;;8.40;99.90;;;;;;5138524;27;39238;-74
2021/11/24 00:28:45;;;;;;;16.23;9.40;;;8.40;99.90;;;;;;5133467;27;37500;-74
2021/11/24 00:31:11;;;;;;;13.00;8.77;;;8.40;99.90;;;;;;5133723;27;39570;-75
2021/11/24 00:33:38;;;;;;;23.10;13.10;;;8.40;99.90;;;;;;5130499;27;38950;-74
2021/11/24 00:36:04;;;;;;;18.97;12.67;;;8.40;99.90;;;;;;5129630;27;39415;-74
2021/11/24 00:38:31;;;;;;;22.90;12.70;;;8.40;99.90;;;;;;5132965;27;36043;-74
2021/11/24 00:40:57;;;;;;;17.63;11.47;;;8.50;99.90;;;;;;5107996;27;39292;-74
2021/11/24 00:43:23;;;;;;;21.27;10.20;;;8.50;99.90;;;;;;5127641;27;39450;-74
2021/11/24 00:45:50;;;;;;;22.30;12.83;;;8.50;99.90;;;;;;5137485;27;38561;-74
2021/11/24 00:48:16;;;;;;;24.57;13.00;;;8.50;99.90;;;;;;5133546;27;37452;-74
2021/11/24 00:50:42;;;;;;;22.40;13.07;;;8.50;99.90;;;;;;5118208;27;39449;-75
2021/11/24 00:53:08;;;;;;;17.17;11.60;;;8.50;99.90;;;;;;5120277;27;38782;-73
2021/11/24 00:55:34;;;;;;;19.13;11.77;;;8.50;99.90;;;;;;5116196;27;40295;-73
2021/11/24 00:58:00;;;;;;;19.43;10.60;;;8.50;99.90;;;;;;5137015;27;37347;-74
2021/11/24 01:00:26;;;;;;;22.90;13.77;;;8.50;99.90;;;;;;5133554;27;47187;-73
2021/11/24 01:02:53;;;;;;;22.70;12.40;;;8.60;99.90;;;;;;5139691;27;38694;-74
2021/11/24 01:05:19;;;;;;;20.47;11.57;;;8.60;99.90;;;;;;5132589;27;38941;-75
2021/11/24 01:07:46;;;;;;;21.47;12.17;;;8.60;99.90;;;;;;5138204;27;38298;-74
2021/11/24 01:10:13;;;;;;;26.87;13.17;;;8.70;99.90;;;;;;5131932;27;38527;-74
2021/11/24 01:12:40;;;;;;;16.00;10.50;;;8.70;99.90;;;;;;5140598;27;38912;-74
2021/11/24 01:15:07;;;;;;;22.50;12.27;;;8.80;99.90;;;;;;5120341;27;37851;-74
2021/11/24 01:17:34;;;;;;;15.90;10.13;;;8.80;99.90;;;;;;5143865;27;34765;-74
2021/11/24 01:20:00;;;;;;;17.80;11.10;;;8.80;99.90;;;;;;5127274;27;39946;-74
2021/11/24 01:22:26;;;;;;;21.90;11.57;;;8.70;99.90;;;;;;5122309;27;38960;-74
2021/11/24 01:24:52;;;;;;;23.00;13.40;;;8.70;99.90;;;;;;5136235;27;38229;-73
2021/11/24 01:27:18;;;;;;;22.77;12.77;;;8.70;99.90;;;;;;5136576;27;38029;-73
2021/11/24 01:29:44;;;;;;;23.63;12.20;;;8.70;99.90;;;;;;5146943;27;39517;-73
2021/11/24 01:32:11;;;;;;;21.13;13.80;;;8.70;99.90;;;;;;5130285;27;38719;-73
2021/11/24 01:34:37;;;;;;;18.10;10.03;;;8.70;99.90;;;;;;5138233;27;39401;-74
2021/11/24 01:37:04;;;;;;;16.50;10.27;;;8.80;99.90;;;;;;5134263;27;37733;-74
2021/11/24 01:39:30;;;;;;;27.20;13.07;;;8.80;99.90;;;;;;5125012;27;40238;-74
2021/11/24 01:41:56;;;;;;;32.40;16.00;;;8.80;99.90;;;;;;5155054;27;38420;-74
2021/11/24 01:44:27;;;;;;;16.17;9.60;;;8.80;99.90;;;;;;5155223;27;38659;-74
2021/11/24 01:46:56;;;;;;;19.10;10.07;;;8.80;99.90;;;;;;5153074;27;38082;-74
2021/11/24 01:49:24;;;;;;;12.50;8.77;;;8.80;99.90;;;;;;5135667;27;39516;-75
2021/11/24 01:51:51;;;;;;;21.77;12.57;;;8.70;99.90;;;;;;5153290;27;39514;-74
2021/11/24 01:54:18;;;;;;;26.17;13.77;;;8.70;99.90;;;;;;5147435;27;39432;-74
2021/11/24 01:56:44;;;;;;;21.70;13.00;;;8.70;99.90;;;;;;5152283;27;38220;-74
2021/11/24 01:59:12;;;;;;;15.30;11.27;;;8.80;99.90;;;;;;5165482;27;38911;-75
2021/11/24 02:01:43;;;;;;;20.37;12.77;;;8.80;99.90;;;;;;5158403;27;39671;-75
2021/11/24 02:04:10;;;;;;;22.10;12.47;;;8.80;99.90;;;;;;5163338;27;39655;-74
2021/11/24 02:06:37;;;;;;;22.03;11.60;;;8.80;99.90;;;;;;5144602;27;38508;-76
2021/11/24 02:09:05;;;;;;;19.23;11.57;;;8.80;99.90;;;;;;5152791;27;39685;-75
2021/11/24 02:11:38;;;;;;;15.23;9.57;;;8.80;99.90;;;;;;5161354;27;38817;-73
2021/11/24 02:14:06;;;;;;;26.30;14.45;;;8.80;99.90;;;;;;5157251;27;38431;-74
2021/11/24 02:16:32;;;;;;;19.67;11.97;;;8.80;99.90;;;;;;5133027;27;36381;-74
2021/11/24 02:18:59;;;;;;;24.03;11.93;;;8.80;99.90;;;;;;5142745;27;39017;-73
2021/11/24 02:21:25;;;;;;;26.93;15.10;;;8.90;99.90;;;;;;5149674;27;38936;-74
2021/11/24 02:23:51;;;;;;;42.13;20.27;;;8.90;99.90;;;;;;5133434;27;39290;-74
2021/11/24 02:26:20;;;;;;;31.63;18.77;;;8.90;99.90;;;;;;5121893;27;36395;-74
2021/11/24 02:28:46;;;;;;;41.67;20.23;;;8.90;99.90;;;;;;5120717;27;40209;-74
2021/11/24 02:31:20;;;;;;;23.97;15.70;;;8.90;99.90;;;;;;5137081;27;39310;-73
2021/11/24 02:33:52;;;;;;;38.97;20.97;;;9.00;99.90;;;;;;5138278;27;39628;-73
2021/11/24 02:36:18;;;;;;;39.43;21.73;;;8.90;99.90;;;;;;5139185;27;38548;-76
2021/11/24 02:38:44;;;;;;;38.43;21.20;;;8.90;99.90;;;;;;5143649;27;38853;-76
2021/11/24 02:41:11;;;;;;;24.83;17.40;;;8.90;99.90;;;;;;5117080;27;39256;-76
2021/11/24 02:43:38;;;;;;;43.90;24.30;;;8.90;99.90;;;;;;5134898;27;38403;-76
2021/11/24 02:46:04;;;;;;;30.67;19.63;;;8.90;99.90;;;;;;5144125;27;37664;-75
2021/11/24 02:48:30;;;;;;;69.20;33.33;;;8.90;99.90;;;;;;5133268;27;39794;-75
2021/11/24 02:50:56;;;;;;;34.30;20.90;;;9.00;99.90;;;;;;5141626;27;39071;-75
2021/11/24 02:53:30;;;;;;;42.47;26.43;;;9.00;99.90;;;;;;5127326;27;39008;-75
2021/11/24 02:55:58;;;;;;;60.47;32.43;;;9.00;99.90;;;;;;5142040;27;36266;-75
2021/11/24 02:58:24;;;;;;;56.70;28.60;;;9.10;99.90;;;;;;5153144;27;38326;-75
2021/11/24 03:00:52;;;;;;;50.77;30.20;;;9.10;99.90;;;;;;5136069;27;40309;-75
2021/11/24 03:03:18;;;;;;;50.27;28.17;;;9.10;99.90;;;;;;5151393;27;38223;-75
2021/11/24 03:05:45;;;;;;;50.90;27.80;;;9.10;99.90;;;;;;5157826;27;37488;-76
2021/11/24 03:08:12;;;;;;;53.67;27.77;;;9.10;99.90;;;;;;5142699;27;39653;-76
2021/11/24 03:10:38;;;;;;;49.83;26.13;;;9.10;99.90;;;;;;5130421;27;39893;-76
2021/11/24 03:13:05;;;;;;;44.67;26.23;;;9.10;99.90;;;;;;5154032;27;38282;-76
2021/11/24 03:15:32;;;;;;;64.13;30.57;;;9.10;99.90;;;;;;5141228;27;38807;-76
2021/11/24 03:17:58;;;;;;;36.37;22.60;;;9.10;99.90;;;;;;5137779;27;39763;-76
2021/11/24 03:20:27;;;;;;;42.30;26.50;;;9.00;99.90;;;;;;5116599;27;40170;-76
2021/11/24 03:22:56;;;;;;;68.13;31.77;;;9.00;99.90;;;;;;5128677;27;38449;-76
2021/11/24 03:25:23;;;;;;;55.40;29.30;;;9.00;99.90;;;;;;5115887;27;38587;-76
2021/11/24 03:27:49;;;;;;;48.67;27.10;;;9.00;99.90;;;;;;5133942;27;38577;-76
2021/11/24 03:30:19;;;;;;;55.97;30.07;;;9.00;99.90;;;;;;5128522;27;40185;-75
2021/11/24 03:32:46;;;;;;;56.20;30.37;;;9.00;99.90;;;;;;5121108;27;38770;-75
2021/11/24 03:35:14;;;;;;;68.07;34.13;;;9.10;99.90;;;;;;5127115;27;38655;-76
2021/11/24 03:37:40;;;;;;;64.73;33.67;;;9.10;99.90;;;;;;5132874;27;38724;-76
2021/11/24 03:40:08;;;;;;;38.73;25.30;;;9.10;99.90;;;;;;5134274;27;39063;-75
2021/11/24 03:42:36;;;;;;;45.97;27.43;;;9.10;99.90;;;;;;5130503;27;39193;-76
2021/11/24 03:45:04;;;;;;;52.10;27.47;;;9.10;99.90;;;;;;5136661;27;37825;-75
2021/11/24 03:47:30;;;;;;;54.50;29.00;;;9.10;99.90;;;;;;5131524;27;47125;-75
2021/11/24 03:49:56;;;;;;;49.17;28.13;;;9.10;99.90;;;;;;5133042;27;39112;-75
2021/11/24 03:52:22;;;;;;;36.63;23.93;;;9.10;99.90;;;;;;5138604;27;38224;-75
2021/11/24 03:54:48;;;;;;;50.77;28.27;;;9.00;99.90;;;;;;5135239;27;36164;-75
2021/11/24 03:57:14;;;;;;;56.33;30.13;;;9.00;99.90;;;;;;5133010;27;39031;-76
2021/11/24 03:59:40;;;;;;;53.50;29.87;;;9.00;99.90;;;;;;5129572;27;39020;-76
2021/11/24 04:02:07;;;;;;;67.43;34.00;;;9.00;99.90;;;;;;5132292;27;38462;-76
2021/11/24 04:04:33;;;;;;;68.60;33.53;;;9.10;99.90;;;;;;5140278;27;38143;-76
2021/11/24 04:07:01;;;;;;;57.10;30.77;;;9.10;99.90;;;;;;5136565;27;40409;-76
2021/11/24 04:09:27;;;;;;;47.87;28.10;;;9.10;99.90;;;;;;5136803;27;47524;-76
2021/11/24 04:11:54;;;;;;;59.90;32.30;;;9.10;99.90;;;;;;5137907;27;38818;-76
2021/11/24 04:14:20;;;;;;;58.67;32.30;;;9.10;99.90;;;;;;5116296;27;37682;-74
2021/11/24 04:16:46;;;;;;;53.90;29.73;;;9.10;99.90;;;;;;5137501;27;39803;-76
2021/11/24 04:19:12;;;;;;;60.10;32.20;;;9.10;99.90;;;;;;5125031;27;39270;-75
2021/11/24 04:21:38;;;;;;;66.77;32.70;;;9.10;99.90;;;;;;5140180;27;39504;-76
2021/11/24 04:24:05;;;;;;;65.03;33.03;;;9.10;99.90;;;;;;5121247;27;37985;-77
2021/11/24 04:26:31;;;;;;;61.80;31.83;;;9.10;99.90;;;;;;5141441;27;38907;-74
2021/11/24 04:28:57;;;;;;;45.17;26.13;;;9.10;99.90;;;;;;5144020;27;37409;-74
2021/11/24 04:31:23;;;;;;;49.23;29.67;;;9.10;99.90;;;;;;5142281;27;38466;-74
2021/11/24 04:33:49;;;;;;;55.73;30.40;;;9.10;99.90;;;;;;5122193;27;38881;-75
2021/11/24 04:36:15;;;;;;;69.07;33.60;;;9.10;99.90;;;;;;5138147;27;38400;-74
2021/11/24 04:38:42;;;;;;;39.40;23.90;;;9.10;99.90;;;;;;5127839;27;39528;-75
2021/11/24 04:41:08;;;;;;;62.80;32.67;;;9.10;99.90;;;;;;5132294;27;38537;-75
2021/11/24 04:43:42;;;;;;;47.43;28.80;;;9.10;99.90;;;;;;5133146;27;37607;-75
2021/11/24 04:46:08;;;;;;;56.17;29.07;;;9.10;99.90;;;;;;5134269;27;39816;-75
2021/11/24 04:48:36;;;;;;;54.53;30.37;;;9.10;99.90;;;;;;5133386;27;39262;-75
2021/11/24 04:51:03;;;;;;;59.93;30.40;;;9.10;99.90;;;;;;5138666;27;38531;-75
2021/11/24 04:53:29;;;;;;;53.47;29.17;;;9.10;99.90;;;;;;5118965;27;38723;-75
2021/11/24 04:55:55;;;;;;;46.23;26.40;;;9.10;99.90;;;;;;5137424;27;38720;-75
2021/11/24 04:58:21;;;;;;;43.60;27.30;;;9.10;99.90;;;;;;5137408;27;38220;-75
2021/11/24 05:00:47;;;;;;;53.03;29.23;;;9.10;99.90;;;;;;5139979;27;39032;-75
2021/11/24 05:03:13;;;;;;;62.20;32.37;;;9.10;99.90;;;;;;5127607;27;37721;-75
2021/11/24 05:05:39;;;;;;;60.00;31.93;;;9.10;99.90;;;;;;5137936;27;40086;-75
2021/11/24 05:08:07;;;;;;;62.77;31.67;;;9.10;99.90;;;;;;5130054;27;37677;-75
2021/11/24 05:10:33;;;;;;;65.50;34.03;;;9.20;99.90;;;;;;5126697;27;39661;-75
2021/11/24 05:12:59;;;;;;;53.97;28.23;;;9.20;99.90;;;;;;5138756;27;37315;-75
2021/11/24 05:15:29;;;;;;;60.67;31.33;;;9.10;99.90;;;;;;5126169;27;39843;-75
2021/11/24 05:18:34;;;;;;;34.93;23.37;;;9.20;99.90;;;;;;5134474;27;39015;-75
2021/11/24 05:20:48;;;;;;;55.17;30.13;;;9.20;99.90;;;;;;5134983;27;48765;-74
2021/11/24 05:23:16;;;;;;;42.33;27.37;;;9.20;99.90;;;;;;5138491;27;36898;-74
2021/11/24 05:25:42;;;;;;;67.70;34.17;;;9.10;99.90;;;;;;5134203;27;39623;-75
2021/11/24 05:28:08;;;;;;;46.83;28.30;;;9.20;99.90;;;;;;5143019;27;39055;-75
2021/11/24 05:30:34;;;;;;;64.97;34.47;;;9.20;99.90;;;;;;5144554;27;38768;-74
2021/11/24 05:33:01;;;;;;;52.37;30.63;;;9.10;99.90;;;;;;5134653;27;38159;-74
2021/11/24 05:35:28;;;;;;;51.23;31.23;;;9.10;99.90;;;;;;5146458;27;47090;-74
2021/11/24 05:37:54;;;;;;;50.70;30.20;;;9.10;99.90;;;;;;5148699;27;40210;-75
2021/11/24 05:40:20;;;;;;;57.93;35.47;;;9.10;99.90;;;;;;5142490;27;39622;-74
2021/11/24 05:42:50;;;;;;;57.30;35.77;;;9.10;99.90;;;;;;5139576;27;38778;-75
2021/11/24 05:48:02;;;;;;;69.20;40.97;;;9.20;99.90;;;;;;5165106;27;40432;-74
2021/11/24 05:50:30;;;;;;;55.80;36.63;;;9.20;99.90;;;;;;5163224;27;48430;-74
2021/11/24 05:52:57;;;;;;;57.93;36.23;;;9.20;99.90;;;;;;5124576;27;39223;-74
2021/11/24 05:55:24;;;;;;;61.30;41.50;;;9.20;99.90;;;;;;5120091;27;40774;-74
2021/11/24 05:57:50;;;;;;;70.30;42.80;;;9.30;99.90;;;;;;5137497;27;39594;-74
2021/11/24 06:00:17;;;;;;;78.10;46.13;;;9.20;99.90;;;;;;5139858;27;38824;-74
2021/11/24 06:02:44;;;;;;;98.77;53.33;;;9.20;99.90;;;;;;5138533;27;37663;-75
2021/11/24 06:05:10;;;;;;;71.77;45.23;;;9.30;99.90;;;;;;5143169;27;39555;-74
2021/11/24 06:07:37;;;;;;;77.60;46.87;;;9.30;99.90;;;;;;5143215;27;39551;-73
2021/11/24 06:10:05;;;;;;;74.30;43.67;;;9.30;99.90;;;;;;5157459;27;40090;-75
2021/11/24 06:12:31;;;;;;;56.37;38.50;;;9.30;99.90;;;;;;5141348;27;47956;-73
2021/11/24 06:14:57;;;;;;;62.03;40.77;;;9.30;99.90;;;;;;5125215;27;39527;-74
2021/11/24 06:17:24;;;;;;;80.50;47.03;;;9.30;99.90;;;;;;5137843;27;40470;-74
2021/11/24 06:19:50;;;;;;;86.97;47.80;;;9.30;99.90;;;;;;5141371;27;38903;-75
2021/11/24 06:22:16;;;;;;;85.17;45.30;;;9.20;99.90;;;;;;5135279;27;39404;-74
2021/11/24 06:24:42;;;;;;;84.30;48.13;;;9.20;99.90;;;;;;5139548;27;39723;-74
2021/11/24 06:27:08;;;;;;;79.60;46.07;;;9.20;99.90;;;;;;5134513;27;39650;-74
2021/11/24 06:29:34;;;;;;;87.03;47.63;;;9.30;99.90;;;;;;5138972;27;38842;-74
2021/11/24 06:32:01;;;;;;;67.03;41.20;;;9.30;99.90;;;;;;5156965;27;38460;-75
2021/11/24 06:34:27;;;;;;;97.30;49.37;;;9.30;99.90;;;;;;5124777;27;39803;-74
2021/11/24 06:36:53;;;;;;;73.50;46.83;;;9.30;99.90;;;;;;5157794;27;38951;-74
2021/11/24 06:39:20;;;;;;;74.83;44.87;;;9.30;99.90;;;;;;5157148;27;38438;-74
2021/11/24 06:41:47;;;;;;;91.57;48.30;;;9.20;99.90;;;;;;5133785;27;39387;-74
2021/11/24 06:44:13;;;;;;;58.83;40.37;;;9.20;99.90;;;;;;5158050;27;38685;-74
2021/11/24 06:46:39;;;;;;;77.47;44.77;;;9.30;99.90;;;;;;5140846;27;38898;-75
2021/11/24 06:49:05;;;;;;;68.70;41.23;;;9.20;99.90;;;;;;5152716;27;39025;-74
2021/11/24 06:51:31;;;;;;;58.57;39.67;;;9.30;99.90;;;;;;5147906;27;36237;-75
2021/11/24 06:53:58;;;;;;;78.37;45.90;;;9.30;99.90;;;;;;5137416;27;38737;-74
2021/11/24 06:56:24;;;;;;;51.97;37.07;;;9.30;99.90;;;;;;5125233;27;38827;-73
2021/11/24 06:58:50;;;;;;;53.93;37.10;;;9.30;99.90;;;;;;5142552;27;38663;-74
2021/11/24 07:01:16;;;;;;;88.23;47.60;;;9.30;99.90;;;;;;5127875;27;37646;-74
2021/11/24 07:03:42;;;;;;;63.37;38.37;;;9.30;99.90;;;;;;5141678;27;39486;-74
2021/11/24 07:06:08;;;;;;;54.73;35.97;;;9.30;99.90;;;;;;5116378;27;39759;-73
2021/11/24 07:08:34;;;;;;;50.63;34.03;;;9.20;99.90;;;;;;5142429;27;38787;-74
2021/11/24 07:11:00;;;;;;;49.70;34.33;;;9.20;99.90;;;;;;5130585;27;38457;-74
2021/11/24 07:13:26;;;;;;;50.93;34.57;;;9.20;99.90;;;;;;5141207;27;47511;-74
2021/11/24 07:15:52;;;;;;;54.63;36.70;;;9.20;99.90;;;;;;5144505;27;38921;-75
2021/11/24 07:18:19;;;;;;;68.03;41.67;;;9.20;99.90;;;;;;5126903;27;38573;-74
2021/11/24 07:20:47;;;;;;;66.23;40.07;;;9.20;99.90;;;;;;5120124;27;38693;-74
2021/11/24 07:23:13;;;;;;;48.70;34.67;;;9.20;99.90;;;;;;5142183;27;39503;-74
2021/11/24 07:25:40;;;;;;;58.13;37.73;;;9.30;99.90;;;;;;5133085;27;40462;-74
2021/11/24 07:28:06;;;;;;;77.80;45.23;;;9.30;99.90;;;;;;5137137;27;40163;-74
2021/11/24 07:30:32;;;;;;;68.93;43.03;;;9.30;99.90;;;;;;5134867;27;38008;-74
2021/11/24 07:32:58;;;;;;;69.97;41.07;;;9.30;99.90;;;;;;5139563;27;40286;-73
2021/11/24 07:35:25;;;;;;;55.67;36.53;;;9.30;99.90;;;;;;5151092;27;39228;-74
2021/11/24 07:37:51;;;;;;;66.30;40.43;;;9.30;99.90;;;;;;5141340;27;38580;-74
2021/11/24 07:40:18;;;;;;;81.67;46.90;;;9.30;99.90;;;;;;5136895;27;37970;-73
2021/11/24 07:42:44;;;;;;;51.90;36.67;;;9.30;99.90;;;;;;5131375;27;39537;-74
2021/11/24 07:45:10;;;;;;;53.00;37.13;;;9.30;99.90;;;;;;5136335;27;38806;-74
2021/11/24 07:47:37;;;;;;;73.40;43.10;;;9.30;99.90;;;;;;5140375;27;38432;-74
2021/11/24 07:50:03;;;;;;;57.67;37.13;;;9.20;99.90;;;;;;5135524;27;35942;-73
2021/11/24 07:52:29;;;;;;;58.40;39.37;;;9.30;99.90;;;;;;5126482;27;46529;-74
2021/11/24 07:54:55;;;;;;;73.17;45.27;;;9.30;99.90;;;;;;5123413;27;38918;-74
2021/11/24 07:57:22;;;;;;;63.03;42.93;;;9.20;99.90;;;;;;5139508;27;39145;-74
2021/11/24 07:59:48;;;;;;;75.67;45.83;;;9.30;99.90;;;;;;5135390;27;38154;-74
2021/11/24 08:02:14;;;;;;;60.37;40.67;;;9.30;99.90;;;;;;5125211;27;40622;-74
2021/11/24 08:04:40;;;;;;;63.73;39.33;;;9.30;99.90;;;;;;5131169;27;37807;-74
2021/11/24 08:07:07;;;;;;;60.70;40.27;;;9.30;99.90;;;;;;5135637;27;39327;-73
2021/11/24 08:09:33;;;;;;;58.37;40.53;;;9.30;99.90;;;;;;5127446;27;39069;-73
2021/11/24 08:12:00;;;;;;;53.00;37.93;;;9.30;99.90;;;;;;5134808;27;38542;-74
2021/11/24 08:14:26;;;;;;;48.77;36.00;;;9.40;99.90;;;;;;5137153;27;39770;-74
2021/11/24 08:16:54;;;;;;;47.17;32.87;;;9.30;99.90;;;;;;5134338;27;39066;-74
2021/11/24 08:19:20;;;;;;;52.13;35.27;;;9.30;99.90;;;;;;5137849;27;36684;-74
2021/11/24 08:21:46;;;;;;;44.57;30.77;;;9.30;99.90;;;;;;5129773;27;37779;-74
2021/11/24 08:24:13;;;;;;;45.97;33.20;;;9.40;99.90;;;;;;5135161;27;38933;-74
2021/11/24 08:26:41;;;;;;;45.40;31.73;;;9.30;99.90;;;;;;5136615;27;38930;-74
2021/11/24 08:29:08;;;;;;;59.43;36.60;;;9.30;99.90;;;;;;5140523;27;37539;-74
2021/11/24 08:31:37;;;;;;;45.83;32.77;;;9.30;99.90;;;;;;5131073;27;40955;-74
2021/11/24 08:34:04;;;;;;;44.57;28.87;;;9.30;99.90;;;;;;5144746;27;39006;-74
2021/11/24 08:36:30;;;;;;;41.07;28.17;;;9.30;99.90;;;;;;5138913;27;39317;-74
2021/11/24 08:38:57;;;;;;;42.27;29.50;;;9.30;99.90;;;;;;5140269;27;38364;-74
2021/11/24 08:41:23;;;;;;;38.17;28.03;;;9.30;99.90;;;;;;5138209;27;37614;-74
2021/11/24 08:43:49;;;;;;;44.90;30.30;;;9.30;99.90;;;;;;5142119;27;38273;-73
2021/11/24 08:46:16;;;;;;;40.53;27.73;;;9.30;99.90;;;;;;5119797;27;38655;-74
2021/11/24 08:48:42;;;;;;;36.43;27.87;;;9.30;99.90;;;;;;5133153;27;37643;-74
2021/11/24 08:51:08;;;;;;;37.77;25.43;;;9.30;99.90;;;;;;5130141;27;39376;-74
2021/11/24 08:53:35;;;;;;;37.43;25.30;;;9.40;99.90;;;;;;5139469;27;39651;-74
2021/11/24 08:56:01;;;;;;;34.20;24.27;;;9.30;99.90;;;;;;5136911;27;38889;-74
2021/11/24 08:58:27;;;;;;;36.77;25.43;;;9.40;99.90;;;;;;5142694;27;48016;-72
2021/11/24 09:00:53;;;;;;;30.63;22.13;;;9.40;99.90;;;;;;5152480;27;39181;-74
2021/11/24 09:03:21;;;;;;;26.80;18.67;;;9.30;99.90;;;;;;5155279;27;39824;-73
2021/11/24 09:05:48;;;;;;;24.47;18.43;;;9.30;99.90;;;;;;5131699;27;40003;-74
2021/11/24 09:08:14;;;;;;;28.83;17.67;;;9.30;99.90;;;;;;5135178;27;38055;-73
2021/11/24 09:10:41;;;;;;;23.33;15.80;;;9.30;99.90;;;;;;5136516;27;38448;-74
2021/11/24 09:13:08;;;;;;;23.63;16.37;;;9.30;99.90;;;;;;5134285;27;39760;-72
2021/11/24 09:15:34;;;;;;;23.40;17.17;;;9.40;99.90;;;;;;5136081;27;37774;-73
2021/11/24 09:18:01;;;;;;;26.77;17.33;;;9.40;99.90;;;;;;5134116;27;38304;-73
2021/11/24 09:20:27;;;;;;;23.70;16.97;;;9.40;99.90;;;;;;5131497;27;47303;-73
2021/11/24 09:22:54;;;;;;;22.60;16.17;;;9.40;99.90;;;;;;5118896;27;38793;-73
2021/11/24 09:25:25;;;;;;;21.77;15.73;;;9.40;99.90;;;;;;5139956;27;39755;-73
2021/11/24 09:30:23;;;;;;;22.97;17.23;;;9.40;99.90;;;;;;5155647;27;39310;-73
2021/11/24 09:32:50;;;;;;;26.63;16.53;;;9.40;99.90;;;;;;5138324;27;37881;-73
2021/11/24 09:35:16;;;;;;;24.67;17.40;;;9.50;99.90;;;;;;5151930;27;38050;-74
2021/11/24 09:37:42;;;;;;;22.37;16.87;;;9.50;99.90;;;;;;5157299;27;37344;-74
2021/11/24 09:40:10;;;;;;;21.53;15.87;;;9.40;99.90;;;;;;5132511;27;39146;-74
2021/11/24 09:42:41;;;;;;;23.27;15.33;;;9.50;99.90;;;;;;5118922;27;38974;-74
2021/11/24 09:45:08;;;;;;;22.50;16.43;;;9.50;99.90;;;;;;5139517;27;38660;-74
2021/11/24 09:47:35;;;;;;;23.93;17.10;;;9.50;99.90;;;;;;5131393;27;38198;-74
2021/11/24 09:50:05;;;;;;;20.30;15.43;;;9.50;99.90;;;;;;5138400;27;38904;-73
2021/11/24 09:52:34;;;;;;;20.50;15.43;;;9.50;99.90;;;;;;5158837;27;47937;-74
2021/11/24 09:55:00;;;;;;;20.20;15.63;;;9.50;99.90;;;;;;5137334;27;38164;-73
2021/11/24 09:57:27;;;;;;;19.57;14.57;;;9.50;99.90;;;;;;5133519;27;37948;-73
2021/11/24 09:59:54;;;;;;;19.67;14.63;;;9.50;99.90;;;;;;5158242;27;38901;-74
2021/11/24 10:02:21;;;;;;;21.63;14.57;;;9.50;99.90;;;;;;5141628;27;39140;-74
2021/11/24 10:04:48;;;;;;;22.50;14.57;;;9.50;99.90;;;;;;5120464;27;39787;-73
2021/11/24 10:07:17;;;;;;;19.57;13.87;;;9.60;99.90;;;;;;5114482;27;36007;-74
2021/11/24 10:09:44;;;;;;;19.83;14.90;;;9.60;99.90;;;;;;5133344;27;38193;-75
2021/11/24 10:12:11;;;;;;;18.23;14.37;;;9.70;99.90;;;;;;5138759;27;38611;-73
2021/11/24 10:14:39;;;;;;;17.90;12.80;;;9.70;99.90;;;;;;5141922;27;38806;-73
2021/11/24 10:17:08;;;;;;;19.07;12.50;;;9.70;99.90;;;;;;5131995;27;38318;-74
2021/11/24 10:19:34;;;;;;;17.13;14.20;;;9.70;99.90;;;;;;5130479;27;39101;-75
2021/11/24 10:22:04;;;;;;;18.27;14.67;;;9.80;99.90;;;;;;5141889;27;39689;-75
2021/11/24 10:24:38;;;;;;;17.30;12.67;;;9.90;99.90;;;;;;5138215;27;49552;-75
2021/11/24 10:27:09;;;;;;;18.83;12.03;;;10.00;99.90;;;;;;5141807;27;38134;-74
2021/11/24 10:29:38;;;;;;;15.47;11.30;;;10.00;99.90;;;;;;5118726;27;39104;-75
2021/11/24 10:32:09;;;;;;;14.60;11.20;;;9.90;99.90;;;;;;5116242;27;37946;-73
2021/11/24 10:34:41;;;;;;;15.33;11.43;;;9.80;99.90;;;;;;5116934;27;40097;-74
2021/11/24 10:37:13;;;;;;;13.67;10.00;;;9.80;99.90;;;;;;5144007;27;37862;-74
2021/11/24 10:39:45;;;;;;;15.68;10.95;;;9.70;99.90;;;;;;5138012;27;39592;-73
2021/11/24 10:42:32;;;;;;;13.88;10.52;;;9.70;99.90;;;;;;5138536;27;40533;-73
2021/11/24 10:45:19;;;;;;;12.17;10.03;;;9.80;99.90;;;;;;5160504;27;39475;-72
2021/11/24 10:48:23;;;;;;;18.20;10.77;;;9.70;99.90;;;;;;5121947;27;47332;-73
2021/11/24 10:50:49;;;;;;;14.90;10.60;;;9.70;99.90;;;;;;5125785;27;47283;-73
2021/11/24 10:53:27;;;;;;;12.97;9.83;;;9.70;99.90;;;;;;5112529;27;38950;-73
2021/11/24 10:55:54;;;;;;;16.80;10.27;;;9.80;99.90;;;;;;5121871;27;37344;-73
2021/11/24 10:58:26;;;;;;;11.20;9.00;;;9.80;99.90;;;;;;5124131;27;36075;-74
2021/11/24 11:00:55;;;;;;;12.63;9.40;;;9.80;99.90;;;;;;5134816;27;41351;-74
2021/11/24 11:03:42;;;;;;;11.10;8.83;;;9.80;99.90;;;;;;5136006;27;39074;-73
2021/11/24 11:06:09;;;;;;;10.30;8.40;;;9.80;99.90;;;;;;5126241;27;39934;-73
2021/11/24 11:08:35;;;;;;;11.63;9.77;;;9.70;99.90;;;;;;5123316;27;38202;-73
2021/11/24 11:11:05;;;;;;;13.63;8.93;;;9.70;99.90;;;;;;5133612;27;39733;-73
2021/11/24 11:13:33;;;;;;;12.00;9.60;;;9.70;99.90;;;;;;5137424;27;48406;-73
2021/11/24 11:15:59;;;;;;;13.33;9.40;;;9.80;99.90;;;;;;5124295;27;38672;-74
2021/11/24 11:18:31;;;;;;;14.23;9.67;;;9.80;99.90;;;;;;5142513;27;38805;-74
2021/11/24 11:21:06;;;;;;;10.88;9.25;;;9.80;99.90;;;;;;5140764;27;40570;-74
2021/11/24 11:23:43;;;;;;;10.27;8.70;;;9.90;99.90;;;;;;5129640;27;47961;-74
2021/11/24 11:26:11;;;;;;;12.63;8.67;;;9.80;99.90;;;;;;5134416;27;40052;-73
2021/11/24 11:28:41;;;;;;;13.03;8.00;;;9.80;99.90;;;;;;5139448;27;37377;-74
2021/11/24 11:31:09;;;;;;;10.73;7.70;;;9.80;99.90;;;;;;5135281;27;38550;-74
2021/11/24 11:33:48;;;;;;;9.23;7.20;;;9.80;99.90;;;;;;5136997;27;40194;-74
2021/11/24 11:36:15;;;;;;;8.90;6.40;;;9.80;99.90;;;;;;5133642;27;39443;-74
2021/11/24 11:38:50;;;;;;;9.50;6.57;;;9.90;99.90;;;;;;5145675;27;36992;-74
2021/11/24 11:41:22;;;;;;;8.83;6.90;;;9.90;99.90;;;;;;5140943;27;38819;-74
2021/11/24 11:43:50;;;;;;;7.30;6.03;;;9.90;99.90;;;;;;5126406;27;37882;-74
2021/11/24 11:46:16;;;;;;;9.73;6.93;;;9.80;99.90;;;;;;5130894;27;38896;-74
2021/11/24 11:48:43;;;;;;;11.10;6.97;;;9.90;99.90;;;;;;5147420;27;37932;-74
2021/11/24 11:51:10;;;;;;;8.63;6.43;;;9.80;99.90;;;;;;5134350;27;40259;-74
2021/11/24 11:53:47;;;;;;;10.00;7.23;;;9.90;99.90;;;;;;5133163;27;38861;-73
2021/11/24 11:56:17;;;;;;;9.90;6.37;;;9.90;99.90;;;;;;5138216;27;39262;-75
2021/11/24 11:58:54;;;;;;;6.87;5.80;;;9.90;99.90;;;;;;5138432;27;37962;-74
2021/11/24 12:01:49;;;;;;;8.40;6.37;;;9.90;99.90;;;;;;5136939;27;38991;-74
2021/11/24 12:04:19;;;;;;;8.20;6.73;;;9.90;99.90;;;;;;5127377;27;39148;-74
2021/11/24 12:06:53;;;;;;;8.30;6.67;;;10.00;99.90;;;;;;5132117;27;39678;-75
2021/11/24 12:09:29;;;;;;;7.03;6.33;;;10.00;99.90;;;;;;5131019;27;38073;-74
2021/11/24 12:11:59;;;;;;;9.53;6.37;;;10.00;99.90;;;;;;5113339;27;38287;-73
2021/11/24 12:14:46;;;;;;;10.93;6.43;;;10.00;99.90;;;;;;5123890;27;38925;-74
2021/11/24 12:17:35;;;;;;;9.10;6.90;;;9.90;99.90;;;;;;5116965;27;39252;-74
2021/11/24 12:20:14;;;;;;;9.63;7.30;;;9.90;99.90;;;;;;5118258;27;37494;-74
2021/11/24 12:25:18;;;;;;;9.07;6.07;;;9.90;99.90;;;;;;5123295;27;39126;-73
2021/11/24 12:27:54;;;;;;;;;;;9.90;99.90;;;;;;5120403;27;38361;-73
2021/11/24 12:30:35;;;;;;;8.63;6.90;;;10.00;99.90;;;;;;5129027;27;35705;-73
2021/11/24 12:33:30;;;;;;;8.97;6.90;;;10.10;99.90;;;;;;5113217;27;38059;-73
2021/11/24 12:36:08;;;;;;;7.63;6.47;;;10.20;99.90;;;;;;5115378;27;38993;-74
2021/11/24 12:38:35;;;;;;;7.87;6.33;;;10.40;99.90;;;;;;5114682;27;47351;-74
2021/11/24 12:41:12;;;;;;;9.10;6.33;;;10.40;99.90;;;;;;5114512;27;37230;-74
2021/11/24 12:43:41;;;;;;;10.47;7.77;;;10.40;99.90;;;;;;5129658;27;37533;-74
2021/11/24 12:46:10;;;;;;;9.33;6.20;;;10.40;99.90;;;;;;5131388;27;38966;-74
2021/11/24 12:48:44;;;;;;;7.67;6.47;;;10.30;99.90;;;;;;5110120;27;37916;-74
2021/11/24 12:51:17;;;;;;;7.47;6.07;;;10.20;99.90;;;;;;5131576;27;36030;-74